sensor_id;sensor_type;location;lat;lon;timestamp;P1;durP1;ratioP1;P2;durP2;ratioP2
18090;SDS011;9172;49.948;9.208;2024-03-23T00:55:31;8.83;;;4.50;;
18090;SDS011;9172;49.948;9.208;2024-03-23T00:58:00;11.50;;;4.73;;
18090;SDS011;9172;49.948;9.208;2024-03-23T01:00:29;6.33;;;3.77;;
18090;SDS011;9172;49.948;9.208;2024-03-23T01:02:58;8.10;;;4.30;;
18090;SDS011;9172;49.948;9.208;2024-03-23T01:05:26;8.40;;;4.70;;
18090;SDS011;9172;49.948;9.208;2024-03-23T01:07:55;11.50;;;4.90;;
18090;SDS011;9172;49.948;9.208;2024-03-23T01:10:24;9.87;;;4.90;;
18090;SDS011;9172;49.948;9.208;2024-03-23T01:12:52;8.53;;;5.03;;
18090;SDS011;9172;49.948;9.208;2024-03-23T01:15:21;13.20;;;5.60;;
18090;SDS011;9172;49.948;9.208;2024-03-23T01:17:50;9.40;;;4.87;;
18090;SDS011;9172;49.948;9.208;2024-03-23T01:20:18;11.07;;;5.67;;
18090;SDS011;9172;49.948;9.208;2024-03-23T01:22:47;9.00;;;4.73;;
18090;SDS011;9172;49.948;9.208;2024-03-23T01:25:15;11.27;;;5.37;;
18090;SDS011;9172;49.948;9.208;2024-03-23T01:27:52;10.40;;;5.47;;
18090;SDS011;9172;49.948;9.208;2024-03-23T01:30:21;6.97;;;4.20;;
18090;SDS011;9172;49.948;9.208;2024-03-23T01:32:50;10.47;;;5.33;;
18090;SDS011;9172;49.948;9.208;2024-03-23T01:35:18;7.53;;;4.70;;
18090;SDS011;9172;49.948;9.208;2024-03-23T01:37:47;12.20;;;6.20;;
18090;SDS011;9172;49.948;9.208;2024-03-23T01:40:16;11.53;;;5.43;;
18090;SDS011;9172;49.948;9.208;2024-03-23T01:42:55;9.57;;;5.10;;
18090;SDS011;9172;49.948;9.208;2024-03-23T01:45:23;8.17;;;4.60;;
18090;SDS011;9172;49.948;9.208;2024-03-23T01:47:52;11.60;;;5.40;;
18090;SDS011;9172;49.948;9.208;2024-03-23T01:50:21;9.30;;;5.10;;
18090;SDS011;9172;49.948;9.208;2024-03-23T01:52:50;12.87;;;5.77;;
18090;SDS011;9172;49.948;9.208;2024-03-23T01:55:19;11.60;;;5.57;;
18090;SDS011;9172;49.948;9.208;2024-03-23T01:57:48;8.93;;;5.17;;
18090;SDS011;9172;49.948;9.208;2024-03-23T02:00:17;10.00;;;5.17;;
18090;SDS011;9172;49.948;9.208;2024-03-23T02:02:45;9.47;;;5.80;;
18090;SDS011;9172;49.948;9.208;2024-03-23T02:05:15;10.30;;;5.47;;
18090;SDS011;9172;49.948;9.208;2024-03-23T02:07:44;8.50;;;5.20;;
18090;SDS011;9172;49.948;9.208;2024-03-23T02:10:12;11.53;;;5.50;;
18090;SDS011;9172;49.948;9.208;2024-03-23T02:12:41;9.03;;;5.57;;
18090;SDS011;9172;49.948;9.208;2024-03-23T02:15:10;10.20;;;6.00;;
18090;SDS011;9172;49.948;9.208;2024-03-23T02:17:38;11.40;;;5.67;;
18090;SDS011;9172;49.948;9.208;2024-03-23T02:20:08;9.23;;;5.10;;
18090;SDS011;9172;49.948;9.208;2024-03-23T02:22:38;8.70;;;4.50;;
18090;SDS011;9172;49.948;9.208;2024-03-23T02:25:07;9.57;;;4.50;;
18090;SDS011;9172;49.948;9.208;2024-03-23T02:27:36;7.27;;;4.47;;
18090;SDS011;9172;49.948;9.208;2024-03-23T02:30:07;8.00;;;4.60;;
18090;SDS011;9172;49.948;9.208;2024-03-23T02:32:36;6.77;;;4.53;;
18090;SDS011;9172;49.948;9.208;2024-03-23T02:35:05;6.80;;;4.17;;
18090;SDS011;9172;49.948;9.208;2024-03-23T02:37:34;10.70;;;5.77;;
18090;SDS011;9172;49.948;9.208;2024-03-23T02:40:03;13.47;;;5.77;;
18090;SDS011;9172;49.948;9.208;2024-03-23T02:42:32;9.43;;;4.47;;
18090;SDS011;9172;49.948;9.208;2024-03-23T02:45:01;13.10;;;5.10;;
18090;SDS011;9172;49.948;9.208;2024-03-23T02:47:31;9.30;;;4.60;;
18090;SDS011;9172;49.948;9.208;2024-03-23T02:49:59;9.83;;;3.97;;
18090;SDS011;9172;49.948;9.208;2024-03-23T02:52:28;11.47;;;5.33;;
18090;SDS011;9172;49.948;9.208;2024-03-23T02:54:57;8.30;;;4.90;;
18090;SDS011;9172;49.948;9.208;2024-03-23T02:57:25;9.50;;;4.90;;
18090;SDS011;9172;49.948;9.208;2024-03-23T02:59:54;8.63;;;5.17;;
18090;SDS011;9172;49.948;9.208;2024-03-23T03:02:22;11.37;;;5.10;;
18090;SDS011;9172;49.948;9.208;2024-03-23T03:04:51;8.77;;;4.90;;
18090;SDS011;9172;49.948;9.208;2024-03-23T03:07:20;10.17;;;4.70;;
18090;SDS011;9172;49.948;9.208;2024-03-23T03:09:48;8.30;;;4.23;;
18090;SDS011;9172;49.948;9.208;2024-03-23T03:12:17;9.63;;;4.70;;
18090;SDS011;9172;49.948;9.208;2024-03-23T03:14:45;7.77;;;4.67;;
18090;SDS011;9172;49.948;9.208;2024-03-23T03:17:14;9.17;;;4.17;;
18090;SDS011;9172;49.948;9.208;2024-03-23T03:19:43;9.93;;;4.57;;
18090;SDS011;9172;49.948;9.208;2024-03-23T03:22:12;11.70;;;4.77;;
18090;SDS011;9172;49.948;9.208;2024-03-23T03:24:41;10.50;;;5.47;;
18090;SDS011;9172;49.948;9.208;2024-03-23T03:27:10;12.30;;;6.13;;
18090;SDS011;9172;49.948;9.208;2024-03-23T03:29:38;10.77;;;5.27;;
18090;SDS011;9172;49.948;9.208;2024-03-23T03:32:07;9.80;;;5.70;;
18090;SDS011;9172;49.948;9.208;2024-03-23T03:34:35;11.13;;;5.87;;
18090;SDS011;9172;49.948;9.208;2024-03-23T03:37:04;12.77;;;5.43;;
18090;SDS011;9172;49.948;9.208;2024-03-23T03:39:33;10.70;;;5.30;;
18090;SDS011;9172;49.948;9.208;2024-03-23T03:42:02;15.67;;;6.57;;
18090;SDS011;9172;49.948;9.208;2024-03-23T03:44:33;12.90;;;5.73;;
18090;SDS011;9172;49.948;9.208;2024-03-23T03:47:03;13.50;;;7.00;;
18090;SDS011;9172;49.948;9.208;2024-03-23T03:49:32;14.20;;;7.80;;
18090;SDS011;9172;49.948;9.208;2024-03-23T03:52:00;13.07;;;7.43;;
18090;SDS011;9172;49.948;9.208;2024-03-23T03:54:29;14.40;;;8.17;;
18090;SDS011;9172;49.948;9.208;2024-03-23T03:56:58;11.77;;;7.00;;
18090;SDS011;9172;49.948;9.208;2024-03-23T03:59:26;16.90;;;8.93;;
18090;SDS011;9172;49.948;9.208;2024-03-23T04:01:55;14.87;;;7.50;;
18090;SDS011;9172;49.948;9.208;2024-03-23T04:04:23;18.37;;;8.07;;
18090;SDS011;9172;49.948;9.208;2024-03-23T04:06:58;13.40;;;7.43;;
18090;SDS011;9172;49.948;9.208;2024-03-23T04:09:27;13.23;;;7.73;;
18090;SDS011;9172;49.948;9.208;2024-03-23T04:11:56;17.00;;;8.20;;
18090;SDS011;9172;49.948;9.208;2024-03-23T04:14:25;15.23;;;7.70;;
18090;SDS011;9172;49.948;9.208;2024-03-23T04:16:53;19.40;;;8.80;;
18090;SDS011;9172;49.948;9.208;2024-03-23T04:19:22;15.43;;;8.80;;
18090;SDS011;9172;49.948;9.208;2024-03-23T04:21:50;19.30;;;8.80;;
18090;SDS011;9172;49.948;9.208;2024-03-23T04:24:19;18.27;;;8.63;;
18090;SDS011;9172;49.948;9.208;2024-03-23T04:26:48;18.10;;;9.00;;
18090;SDS011;9172;49.948;9.208;2024-03-23T04:29:17;15.60;;;8.63;;
18090;SDS011;9172;49.948;9.208;2024-03-23T04:31:46;14.60;;;7.50;;
18090;SDS011;9172;49.948;9.208;2024-03-23T04:34:14;16.83;;;7.70;;
18090;SDS011;9172;49.948;9.208;2024-03-23T04:36:43;17.13;;;8.47;;
18090;SDS011;9172;49.948;9.208;2024-03-23T04:39:11;18.70;;;9.53;;
18090;SDS011;9172;49.948;9.208;2024-03-23T04:41:40;17.47;;;8.00;;
18090;SDS011;9172;49.948;9.208;2024-03-23T04:44:09;15.73;;;8.70;;
18090;SDS011;9172;49.948;9.208;2024-03-23T04:46:37;18.83;;;8.87;;
18090;SDS011;9172;49.948;9.208;2024-03-23T04:49:06;15.13;;;8.43;;
18090;SDS011;9172;49.948;9.208;2024-03-23T04:51:35;14.17;;;8.07;;
18090;SDS011;9172;49.948;9.208;2024-03-23T04:54:05;12.83;;;7.37;;
18090;SDS011;9172;49.948;9.208;2024-03-23T04:56:33;17.03;;;8.40;;
18090;SDS011;9172;49.948;9.208;2024-03-23T04:59:02;16.60;;;8.40;;
18090;SDS011;9172;49.948;9.208;2024-03-23T05:01:31;18.63;;;8.53;;
18090;SDS011;9172;49.948;9.208;2024-03-23T05:04:00;12.63;;;7.00;;
18090;SDS011;9172;49.948;9.208;2024-03-23T05:06:29;20.93;;;7.87;;
18090;SDS011;9172;49.948;9.208;2024-03-23T05:08:58;16.07;;;8.40;;
18090;SDS011;9172;49.948;9.208;2024-03-23T05:11:27;17.93;;;9.17;;
18090;SDS011;9172;49.948;9.208;2024-03-23T05:13:56;15.30;;;8.47;;
18090;SDS011;9172;49.948;9.208;2024-03-23T05:16:25;20.73;;;10.70;;
18090;SDS011;9172;49.948;9.208;2024-03-23T05:18:54;18.57;;;9.60;;
18090;SDS011;9172;49.948;9.208;2024-03-23T05:21:23;24.47;;;9.97;;
18090;SDS011;9172;49.948;9.208;2024-03-23T05:23:53;20.57;;;10.53;;
18090;SDS011;9172;49.948;9.208;2024-03-23T05:26:22;23.67;;;10.17;;
18090;SDS011;9172;49.948;9.208;2024-03-23T05:28:50;18.67;;;8.90;;
18090;SDS011;9172;49.948;9.208;2024-03-23T05:31:29;17.80;;;8.47;;
18090;SDS011;9172;49.948;9.208;2024-03-23T05:34:00;16.60;;;8.53;;
18090;SDS011;9172;49.948;9.208;2024-03-23T05:39:05;15.67;;;7.83;;
18090;SDS011;9172;49.948;9.208;2024-03-23T05:41:34;12.50;;;5.53;;
18090;SDS011;9172;49.948;9.208;2024-03-23T05:44:03;17.77;;;7.57;;
18090;SDS011;9172;49.948;9.208;2024-03-23T05:46:32;13.90;;;6.73;;
18090;SDS011;9172;49.948;9.208;2024-03-23T05:49:01;13.47;;;5.97;;
18090;SDS011;9172;49.948;9.208;2024-03-23T05:51:30;12.07;;;5.87;;
18090;SDS011;9172;49.948;9.208;2024-03-23T05:53:58;12.70;;;6.17;;
18090;SDS011;9172;49.948;9.208;2024-03-23T05:56:27;14.83;;;5.70;;
18090;SDS011;9172;49.948;9.208;2024-03-23T05:58:56;9.10;;;4.63;;
18090;SDS011;9172;49.948;9.208;2024-03-23T06:01:24;8.47;;;4.07;;
18090;SDS011;9172;49.948;9.208;2024-03-23T06:03:55;7.93;;;3.80;;
18090;SDS011;9172;49.948;9.208;2024-03-23T06:06:23;5.93;;;2.37;;
18090;SDS011;9172;49.948;9.208;2024-03-23T06:08:52;2.30;;;1.40;;
18090;SDS011;9172;49.948;9.208;2024-03-23T06:11:20;3.43;;;1.00;;
18090;SDS011;9172;49.948;9.208;2024-03-23T06:13:49;2.00;;;1.00;;
18090;SDS011;9172;49.948;9.208;2024-03-23T06:16:18;1.67;;;1.07;;
18090;SDS011;9172;49.948;9.208;2024-03-23T06:18:48;1.37;;;1.07;;
18090;SDS011;9172;49.948;9.208;2024-03-23T06:21:17;1.23;;;0.83;;
18090;SDS011;9172;49.948;9.208;2024-03-23T06:23:45;1.17;;;0.97;;
18090;SDS011;9172;49.948;9.208;2024-03-23T06:26:16;1.30;;;0.97;;
18090;SDS011;9172;49.948;9.208;2024-03-23T06:28:45;1.60;;;1.13;;
18090;SDS011;9172;49.948;9.208;2024-03-23T06:31:14;1.50;;;1.20;;
18090;SDS011;9172;49.948;9.208;2024-03-23T06:33:44;6.07;;;1.10;;
18090;SDS011;9172;49.948;9.208;2024-03-23T06:36:12;1.60;;;1.20;;
18090;SDS011;9172;49.948;9.208;2024-03-23T06:38:41;2.00;;;1.17;;
18090;SDS011;9172;49.948;9.208;2024-03-23T06:41:10;2.73;;;1.30;;
18090;SDS011;9172;49.948;9.208;2024-03-23T06:43:38;3.43;;;1.20;;
18090;SDS011;9172;49.948;9.208;2024-03-23T06:46:16;3.13;;;1.40;;
18090;SDS011;9172;49.948;9.208;2024-03-23T06:48:45;2.30;;;1.20;;
18090;SDS011;9172;49.948;9.208;2024-03-23T06:51:14;4.17;;;1.43;;
18090;SDS011;9172;49.948;9.208;2024-03-23T06:53:43;3.23;;;1.17;;
18090;SDS011;9172;49.948;9.208;2024-03-23T06:56:11;2.43;;;1.37;;
18090;SDS011;9172;49.948;9.208;2024-03-23T06:58:43;1.70;;;1.13;;
18090;SDS011;9172;49.948;9.208;2024-03-23T07:01:11;1.93;;;0.97;;
18090;SDS011;9172;49.948;9.208;2024-03-23T07:03:43;1.37;;;1.20;;
18090;SDS011;9172;49.948;9.208;2024-03-23T07:06:12;1.00;;;0.80;;
18090;SDS011;9172;49.948;9.208;2024-03-23T07:08:49;1.30;;;1.00;;
18090;SDS011;9172;49.948;9.208;2024-03-23T07:11:19;1.33;;;1.10;;
18090;SDS011;9172;49.948;9.208;2024-03-23T07:13:49;2.73;;;1.20;;
18090;SDS011;9172;49.948;9.208;2024-03-23T07:16:18;1.20;;;1.03;;
18090;SDS011;9172;49.948;9.208;2024-03-23T07:18:47;2.17;;;1.63;;
18090;SDS011;9172;49.948;9.208;2024-03-23T07:21:17;2.63;;;1.40;;
18090;SDS011;9172;49.948;9.208;2024-03-23T07:23:45;0.90;;;0.80;;
18090;SDS011;9172;49.948;9.208;2024-03-23T07:26:14;1.23;;;0.93;;
18090;SDS011;9172;49.948;9.208;2024-03-23T07:31:19;1.00;;;0.80;;
18090;SDS011;9172;49.948;9.208;2024-03-23T07:33:49;1.57;;;0.67;;
18090;SDS011;9172;49.948;9.208;2024-03-23T07:36:17;0.67;;;0.60;;
18090;SDS011;9172;49.948;9.208;2024-03-23T07:38:46;1.53;;;1.07;;
18090;SDS011;9172;49.948;9.208;2024-03-23T07:41:15;1.50;;;0.70;;
18090;SDS011;9172;49.948;9.208;2024-03-23T07:43:45;0.50;;;0.50;;
18090;SDS011;9172;49.948;9.208;2024-03-23T07:46:15;0.87;;;0.73;;
18090;SDS011;9172;49.948;9.208;2024-03-23T07:48:45;0.50;;;0.50;;
18090;SDS011;9172;49.948;9.208;2024-03-23T07:51:17;0.80;;;0.60;;
18090;SDS011;9172;49.948;9.208;2024-03-23T07:53:47;0.80;;;0.80;;
18090;SDS011;9172;49.948;9.208;2024-03-23T07:56:16;0.87;;;0.83;;
18090;SDS011;9172;49.948;9.208;2024-03-23T07:58:45;1.30;;;0.93;;
18090;SDS011;9172;49.948;9.208;2024-03-23T08:01:14;2.47;;;0.90;;
18090;SDS011;9172;49.948;9.208;2024-03-23T08:03:44;1.30;;;0.80;;
18090;SDS011;9172;49.948;9.208;2024-03-23T08:06:13;2.73;;;0.83;;
18090;SDS011;9172;49.948;9.208;2024-03-23T08:08:43;1.50;;;1.00;;
18090;SDS011;9172;49.948;9.208;2024-03-23T08:11:13;0.97;;;0.70;;
18090;SDS011;9172;49.948;9.208;2024-03-23T08:13:42;2.57;;;0.90;;
18090;SDS011;9172;49.948;9.208;2024-03-23T08:16:12;1.33;;;0.73;;
18090;SDS011;9172;49.948;9.208;2024-03-23T08:18:41;2.23;;;0.90;;
18090;SDS011;9172;49.948;9.208;2024-03-23T08:21:10;2.90;;;1.13;;
18090;SDS011;9172;49.948;9.208;2024-03-23T08:23:38;1.93;;;0.77;;
18090;SDS011;9172;49.948;9.208;2024-03-23T08:26:07;1.40;;;0.80;;
18090;SDS011;9172;49.948;9.208;2024-03-23T08:28:37;2.20;;;1.10;;
18090;SDS011;9172;49.948;9.208;2024-03-23T08:31:06;1.80;;;1.03;;
18090;SDS011;9172;49.948;9.208;2024-03-23T08:33:36;1.10;;;0.77;;
18090;SDS011;9172;49.948;9.208;2024-03-23T08:36:06;2.33;;;1.10;;
18090;SDS011;9172;49.948;9.208;2024-03-23T08:38:36;1.70;;;1.00;;
18090;SDS011;9172;49.948;9.208;2024-03-23T08:41:05;3.03;;;1.23;;
18090;SDS011;9172;49.948;9.208;2024-03-23T08:43:36;1.83;;;0.93;;
18090;SDS011;9172;49.948;9.208;2024-03-23T08:46:05;1.73;;;1.00;;
18090;SDS011;9172;49.948;9.208;2024-03-23T08:48:35;3.93;;;1.13;;
18090;SDS011;9172;49.948;9.208;2024-03-23T08:51:05;1.00;;;0.83;;
18090;SDS011;9172;49.948;9.208;2024-03-23T08:53:35;2.57;;;0.80;;
18090;SDS011;9172;49.948;9.208;2024-03-23T08:56:05;4.80;;;0.90;;
18090;SDS011;9172;49.948;9.208;2024-03-23T08:58:35;2.13;;;0.80;;
18090;SDS011;9172;49.948;9.208;2024-03-23T09:01:06;2.33;;;1.10;;
18090;SDS011;9172;49.948;9.208;2024-03-23T09:03:36;4.63;;;1.27;;
18090;SDS011;9172;49.948;9.208;2024-03-23T09:06:07;3.57;;;0.97;;
18090;SDS011;9172;49.948;9.208;2024-03-23T09:08:36;1.47;;;0.93;;
18090;SDS011;9172;49.948;9.208;2024-03-23T09:11:07;1.83;;;1.00;;
18090;SDS011;9172;49.948;9.208;2024-03-23T09:13:36;2.57;;;1.30;;
18090;SDS011;9172;49.948;9.208;2024-03-23T09:16:06;3.53;;;1.50;;
18090;SDS011;9172;49.948;9.208;2024-03-23T09:18:36;2.43;;;1.23;;
18090;SDS011;9172;49.948;9.208;2024-03-23T09:21:10;6.73;;;1.83;;
18090;SDS011;9172;49.948;9.208;2024-03-23T09:23:47;11.13;;;1.90;;
18090;SDS011;9172;49.948;9.208;2024-03-23T09:26:16;6.20;;;1.97;;
18090;SDS011;9172;49.948;9.208;2024-03-23T09:28:44;8.50;;;2.10;;
18090;SDS011;9172;49.948;9.208;2024-03-23T09:31:16;6.70;;;1.93;;
18090;SDS011;9172;49.948;9.208;2024-03-23T09:33:45;6.90;;;2.47;;
18090;SDS011;9172;49.948;9.208;2024-03-23T09:36:22;7.93;;;2.47;;
18090;SDS011;9172;49.948;9.208;2024-03-23T09:38:51;6.33;;;1.97;;
18090;SDS011;9172;49.948;9.208;2024-03-23T09:41:20;5.73;;;2.40;;
18090;SDS011;9172;49.948;9.208;2024-03-23T09:43:57;9.17;;;2.80;;
18090;SDS011;9172;49.948;9.208;2024-03-23T09:46:27;7.13;;;2.47;;
18090;SDS011;9172;49.948;9.208;2024-03-23T09:48:58;10.13;;;2.40;;
18090;SDS011;9172;49.948;9.208;2024-03-23T09:51:27;6.27;;;2.80;;
18090;SDS011;9172;49.948;9.208;2024-03-23T09:53:56;7.83;;;2.43;;
18090;SDS011;9172;49.948;9.208;2024-03-23T09:56:25;5.57;;;2.23;;
18090;SDS011;9172;49.948;9.208;2024-03-23T09:59:00;6.23;;;2.13;;
18090;SDS011;9172;49.948;9.208;2024-03-23T10:01:30;3.13;;;1.97;;
18090;SDS011;9172;49.948;9.208;2024-03-23T10:03:58;8.07;;;2.60;;
18090;SDS011;9172;49.948;9.208;2024-03-23T10:06:27;4.57;;;2.47;;
18090;SDS011;9172;49.948;9.208;2024-03-23T10:08:55;7.43;;;2.50;;
18090;SDS011;9172;49.948;9.208;2024-03-23T10:11:24;8.43;;;2.80;;
18090;SDS011;9172;49.948;9.208;2024-03-23T10:13:54;4.63;;;2.13;;
18090;SDS011;9172;49.948;9.208;2024-03-23T10:16:23;6.03;;;2.67;;
18090;SDS011;9172;49.948;9.208;2024-03-23T10:18:53;3.87;;;1.90;;
18090;SDS011;9172;49.948;9.208;2024-03-23T10:21:21;6.60;;;2.43;;
18090;SDS011;9172;49.948;9.208;2024-03-23T10:23:50;7.63;;;2.10;;
18090;SDS011;9172;49.948;9.208;2024-03-23T10:26:27;8.70;;;2.47;;
18090;SDS011;9172;49.948;9.208;2024-03-23T10:28:56;5.30;;;2.40;;
18090;SDS011;9172;49.948;9.208;2024-03-23T10:31:27;7.27;;;2.63;;
18090;SDS011;9172;49.948;9.208;2024-03-23T10:33:56;9.37;;;2.17;;
18090;SDS011;9172;49.948;9.208;2024-03-23T10:36:27;11.97;;;2.10;;
18090;SDS011;9172;49.948;9.208;2024-03-23T10:38:56;7.37;;;2.20;;
18090;SDS011;9172;49.948;9.208;2024-03-23T10:41:26;5.43;;;1.73;;
18090;SDS011;9172;49.948;9.208;2024-03-23T10:43:56;6.13;;;2.03;;
18090;SDS011;9172;49.948;9.208;2024-03-23T10:46:26;10.33;;;2.40;;
18090;SDS011;9172;49.948;9.208;2024-03-23T10:48:55;5.03;;;2.10;;
18090;SDS011;9172;49.948;9.208;2024-03-23T10:51:23;6.37;;;1.97;;
18090;SDS011;9172;49.948;9.208;2024-03-23T10:53:52;6.17;;;2.10;;
18090;SDS011;9172;49.948;9.208;2024-03-23T10:56:22;6.43;;;2.30;;
18090;SDS011;9172;49.948;9.208;2024-03-23T10:58:52;3.73;;;1.77;;
18090;SDS011;9172;49.948;9.208;2024-03-23T11:01:21;5.93;;;2.10;;
18090;SDS011;9172;49.948;9.208;2024-03-23T11:03:51;8.47;;;2.43;;
18090;SDS011;9172;49.948;9.208;2024-03-23T11:12:26;2.70;;;1.53;;
18090;SDS011;9172;49.948;9.208;2024-03-23T11:14:58;5.13;;;1.93;;
18090;SDS011;9172;49.948;9.208;2024-03-23T11:17:28;8.10;;;1.97;;
18090;SDS011;9172;49.948;9.208;2024-03-23T11:19:58;7.33;;;1.80;;
18090;SDS011;9172;49.948;9.208;2024-03-23T11:22:40;7.07;;;2.17;;
18090;SDS011;9172;49.948;9.208;2024-03-23T11:25:13;5.97;;;1.70;;
18090;SDS011;9172;49.948;9.208;2024-03-23T11:30:15;4.90;;;1.90;;
18090;SDS011;9172;49.948;9.208;2024-03-23T11:32:45;4.30;;;1.90;;
18090;SDS011;9172;49.948;9.208;2024-03-23T11:35:25;6.17;;;1.90;;
18090;SDS011;9172;49.948;9.208;2024-03-23T11:38:01;4.90;;;1.53;;
18090;SDS011;9172;49.948;9.208;2024-03-23T11:40:35;5.30;;;2.00;;
18090;SDS011;9172;49.948;9.208;2024-03-23T11:43:05;2.93;;;1.60;;
18090;SDS011;9172;49.948;9.208;2024-03-23T11:45:36;7.50;;;2.47;;
18090;SDS011;9172;49.948;9.208;2024-03-23T11:48:07;6.83;;;2.00;;
18090;SDS011;9172;49.948;9.208;2024-03-23T11:50:37;6.53;;;1.70;;
18090;SDS011;9172;49.948;9.208;2024-03-23T11:53:08;1.47;;;1.20;;
18090;SDS011;9172;49.948;9.208;2024-03-23T11:55:39;3.37;;;1.20;;
18090;SDS011;9172;49.948;9.208;2024-03-23T11:58:12;2.70;;;1.30;;
18090;SDS011;9172;49.948;9.208;2024-03-23T12:00:42;8.37;;;1.37;;
18090;SDS011;9172;49.948;9.208;2024-03-23T12:03:12;5.17;;;0.90;;
18090;SDS011;9172;49.948;9.208;2024-03-23T12:05:41;2.17;;;0.97;;
18090;SDS011;9172;49.948;9.208;2024-03-23T12:08:18;6.63;;;1.30;;
18090;SDS011;9172;49.948;9.208;2024-03-23T12:10:49;4.40;;;1.10;;
18090;SDS011;9172;49.948;9.208;2024-03-23T12:13:20;2.63;;;0.90;;
18090;SDS011;9172;49.948;9.208;2024-03-23T12:15:50;7.40;;;2.17;;
18090;SDS011;9172;49.948;9.208;2024-03-23T12:18:23;2.30;;;1.00;;
18090;SDS011;9172;49.948;9.208;2024-03-23T12:20:52;4.10;;;1.50;;
18090;SDS011;9172;49.948;9.208;2024-03-23T12:23:20;3.07;;;1.00;;
18090;SDS011;9172;49.948;9.208;2024-03-23T12:25:49;1.83;;;0.90;;
18090;SDS011;9172;49.948;9.208;2024-03-23T12:28:18;1.83;;;1.67;;
18090;SDS011;9172;49.948;9.208;2024-03-23T12:30:46;1.93;;;0.93;;
18090;SDS011;9172;49.948;9.208;2024-03-23T12:33:16;2.77;;;1.00;;
18090;SDS011;9172;49.948;9.208;2024-03-23T12:35:45;4.83;;;1.30;;
18090;SDS011;9172;49.948;9.208;2024-03-23T12:38:14;10.03;;;1.30;;
18090;SDS011;9172;49.948;9.208;2024-03-23T12:40:46;8.13;;;0.93;;
18090;SDS011;9172;49.948;9.208;2024-03-23T12:43:15;4.60;;;1.10;;
18090;SDS011;9172;49.948;9.208;2024-03-23T12:45:46;1.53;;;0.70;;
18090;SDS011;9172;49.948;9.208;2024-03-23T12:48:15;6.83;;;1.50;;
18090;SDS011;9172;49.948;9.208;2024-03-23T12:50:44;4.50;;;1.23;;
18090;SDS011;9172;49.948;9.208;2024-03-23T12:53:13;3.17;;;1.23;;
18090;SDS011;9172;49.948;9.208;2024-03-23T12:55:45;1.70;;;1.00;;
18090;SDS011;9172;49.948;9.208;2024-03-23T12:58:14;4.50;;;0.90;;
18090;SDS011;9172;49.948;9.208;2024-03-23T13:00:43;6.87;;;1.87;;
18090;SDS011;9172;49.948;9.208;2024-03-23T13:03:13;3.43;;;1.47;;
18090;SDS011;9172;49.948;9.208;2024-03-23T13:05:42;4.07;;;1.40;;
18090;SDS011;9172;49.948;9.208;2024-03-23T13:08:11;2.27;;;1.43;;
18090;SDS011;9172;49.948;9.208;2024-03-23T13:10:40;4.23;;;1.40;;
18090;SDS011;9172;49.948;9.208;2024-03-23T13:13:09;4.17;;;1.63;;
18090;SDS011;9172;49.948;9.208;2024-03-23T13:15:40;4.53;;;1.10;;
18090;SDS011;9172;49.948;9.208;2024-03-23T13:18:09;4.20;;;1.30;;
18090;SDS011;9172;49.948;9.208;2024-03-23T13:20:38;3.83;;;1.30;;
18090;SDS011;9172;49.948;9.208;2024-03-23T13:23:07;5.37;;;1.70;;
18090;SDS011;9172;49.948;9.208;2024-03-23T13:25:35;9.30;;;1.60;;
18090;SDS011;9172;49.948;9.208;2024-03-23T13:28:05;3.90;;;1.93;;
18090;SDS011;9172;49.948;9.208;2024-03-23T13:30:35;4.13;;;1.33;;
18090;SDS011;9172;49.948;9.208;2024-03-23T13:33:04;4.93;;;1.40;;
18090;SDS011;9172;49.948;9.208;2024-03-23T13:35:34;7.13;;;1.40;;
18090;SDS011;9172;49.948;9.208;2024-03-23T13:38:03;3.10;;;1.30;;
18090;SDS011;9172;49.948;9.208;2024-03-23T13:40:31;3.53;;;1.50;;
18090;SDS011;9172;49.948;9.208;2024-03-23T13:43:00;4.37;;;1.17;;
18090;SDS011;9172;49.948;9.208;2024-03-23T13:45:29;2.77;;;1.27;;
18090;SDS011;9172;49.948;9.208;2024-03-23T13:47:57;6.20;;;1.60;;
18090;SDS011;9172;49.948;9.208;2024-03-23T13:50:26;4.90;;;1.40;;
18090;SDS011;9172;49.948;9.208;2024-03-23T13:52:54;3.83;;;1.50;;
18090;SDS011;9172;49.948;9.208;2024-03-23T13:55:23;2.80;;;1.30;;
18090;SDS011;9172;49.948;9.208;2024-03-23T13:57:51;2.33;;;1.17;;
18090;SDS011;9172;49.948;9.208;2024-03-23T14:00:20;4.10;;;1.23;;
18090;SDS011;9172;49.948;9.208;2024-03-23T14:02:49;7.93;;;1.30;;
18090;SDS011;9172;49.948;9.208;2024-03-23T14:05:17;2.73;;;1.20;;
18090;SDS011;9172;49.948;9.208;2024-03-23T14:07:46;8.33;;;1.83;;
18090;SDS011;9172;49.948;9.208;2024-03-23T14:10:15;4.87;;;1.53;;
18090;SDS011;9172;49.948;9.208;2024-03-23T14:12:44;8.30;;;1.83;;
18090;SDS011;9172;49.948;9.208;2024-03-23T14:15:13;1.70;;;1.00;;
18090;SDS011;9172;49.948;9.208;2024-03-23T14:17:41;1.93;;;1.10;;
18090;SDS011;9172;49.948;9.208;2024-03-23T14:20:11;3.27;;;1.20;;
18090;SDS011;9172;49.948;9.208;2024-03-23T14:22:41;1.10;;;1.00;;
18090;SDS011;9172;49.948;9.208;2024-03-23T14:25:10;3.57;;;0.90;;
18090;SDS011;9172;49.948;9.208;2024-03-23T14:27:39;5.97;;;1.10;;
18090;SDS011;9172;49.948;9.208;2024-03-23T14:30:09;1.70;;;0.80;;
18090;SDS011;9172;49.948;9.208;2024-03-23T14:32:39;2.90;;;0.97;;
18090;SDS011;9172;49.948;9.208;2024-03-23T14:35:08;0.80;;;0.80;;
18090;SDS011;9172;49.948;9.208;2024-03-23T14:37:36;4.07;;;1.50;;
18090;SDS011;9172;49.948;9.208;2024-03-23T14:40:08;2.53;;;1.10;;
18090;SDS011;9172;49.948;9.208;2024-03-23T14:42:39;1.00;;;0.80;;
18090;SDS011;9172;49.948;9.208;2024-03-23T14:45:09;2.73;;;1.20;;
18090;SDS011;9172;49.948;9.208;2024-03-23T14:47:37;1.87;;;0.80;;
18090;SDS011;9172;49.948;9.208;2024-03-23T14:50:09;1.83;;;1.20;;
18090;SDS011;9172;49.948;9.208;2024-03-23T14:52:46;3.10;;;0.97;;
18090;SDS011;9172;49.948;9.208;2024-03-23T14:55:17;1.60;;;0.90;;
18090;SDS011;9172;49.948;9.208;2024-03-23T14:57:46;1.57;;;1.10;;
18090;SDS011;9172;49.948;9.208;2024-03-23T15:00:17;5.20;;;2.83;;
18090;SDS011;9172;49.948;9.208;2024-03-23T15:02:46;3.87;;;1.77;;
18090;SDS011;9172;49.948;9.208;2024-03-23T15:05:15;5.67;;;1.50;;
18090;SDS011;9172;49.948;9.208;2024-03-23T15:07:43;2.10;;;0.90;;
18090;SDS011;9172;49.948;9.208;2024-03-23T15:10:12;4.80;;;1.10;;
18090;SDS011;9172;49.948;9.208;2024-03-23T15:12:41;2.23;;;1.27;;
18090;SDS011;9172;49.948;9.208;2024-03-23T15:15:09;1.27;;;0.97;;
18090;SDS011;9172;49.948;9.208;2024-03-23T15:17:38;2.30;;;1.30;;
18090;SDS011;9172;49.948;9.208;2024-03-23T15:20:10;2.80;;;1.20;;
18090;SDS011;9172;49.948;9.208;2024-03-23T15:22:39;4.40;;;1.60;;
18090;SDS011;9172;49.948;9.208;2024-03-23T15:25:08;2.40;;;1.30;;
18090;SDS011;9172;49.948;9.208;2024-03-23T15:27:37;1.63;;;1.20;;
18090;SDS011;9172;49.948;9.208;2024-03-23T15:30:07;4.07;;;1.47;;
18090;SDS011;9172;49.948;9.208;2024-03-23T15:32:37;2.60;;;1.60;;
18090;SDS011;9172;49.948;9.208;2024-03-23T15:35:06;4.70;;;1.40;;
18090;SDS011;9172;49.948;9.208;2024-03-23T15:37:35;5.57;;;1.70;;
18090;SDS011;9172;49.948;9.208;2024-03-23T15:40:06;4.13;;;1.87;;
18090;SDS011;9172;49.948;9.208;2024-03-23T15:42:37;2.70;;;1.33;;
18090;SDS011;9172;49.948;9.208;2024-03-23T15:45:07;2.23;;;1.37;;
18090;SDS011;9172;49.948;9.208;2024-03-23T15:47:36;3.00;;;1.20;;
18090;SDS011;9172;49.948;9.208;2024-03-23T15:50:06;2.30;;;1.43;;
18090;SDS011;9172;49.948;9.208;2024-03-23T15:52:36;3.70;;;1.37;;
18090;SDS011;9172;49.948;9.208;2024-03-23T15:55:05;1.70;;;1.20;;
18090;SDS011;9172;49.948;9.208;2024-03-23T15:57:36;1.20;;;1.10;;
18090;SDS011;9172;49.948;9.208;2024-03-23T16:02:44;3.93;;;1.37;;
18090;SDS011;9172;49.948;9.208;2024-03-23T16:05:13;2.73;;;1.50;;
18090;SDS011;9172;49.948;9.208;2024-03-23T16:07:42;3.40;;;1.23;;
18090;SDS011;9172;49.948;9.208;2024-03-23T16:10:10;1.57;;;1.00;;
18090;SDS011;9172;49.948;9.208;2024-03-23T16:12:39;1.70;;;1.27;;
18090;SDS011;9172;49.948;9.208;2024-03-23T16:15:09;2.63;;;1.30;;
18090;SDS011;9172;49.948;9.208;2024-03-23T16:17:38;3.30;;;1.13;;
18090;SDS011;9172;49.948;9.208;2024-03-23T16:20:08;1.40;;;1.20;;
18090;SDS011;9172;49.948;9.208;2024-03-23T16:22:39;2.40;;;1.13;;